Accueil
METAR-TAF:

METAR-TAF

Aéroports :

Schwäbisch Hall, Allemagne

latitude: 49-07-06N, longitude: 9-47-02E, altitude: 398 m

Observation

Le bulletin a été fait il y a 14 minutes, à 07:50 UTC
Vent calme
Température 12°C
Humidité 76%
Pression 1015 hPa
Visibilité 10 km ou plus
pas de nuages en-dessous de 1500 mètres et pas de cumulonimbus.

METAR: EDTY 150750Z 00000KT CAVOK 12/08 Q1015

Heure: 10:04 (08:04 UTC)

Prévision

Le bulletin a été fait il y a 3 heures et 4 minutes, à 05:00 UTC
Prévision valable du 15 à 06 UTC au 15 à 15 UTC
Vent 5 kt de est
Visibilité 10 km ou plus
pas de nuages en-dessous de 1500 mètres et pas de cumulonimbus.
Temporairement
du 15 à 06 UTC au 15 à 09 UTC
Vent 2 kt de direction variable

TAF: EDTY 150500Z 1506/1515 09005KT CAVOK TEMPO 1506/1509 VRB02KT

Observations et prévisions météorologiques de plus de 4000 aéroports (messages METAR et TAF).

Les stations disponibles sont représentées par des disques jaunes et rouges sur la carte.

Passer la souris dessus pour voir le nom de la station.

Cliquer dessus pour voir les observations et prévisions météorologiques.

Pour changer de carte: cliquez sur les boutons verts avec une croix noire pour zoomer, sur le bouton vert avec un tiret pour effectuer un zoom arrière, ou sur les flèches vertes pour les cartes adjacentes.


METAR-TAF: